Time;durP1;ratioP1;P1;durP2;ratioP2;P2;SDS_P1;SDS_P2;PMS_P1;PMS_P2;Temp;Humidity;BMP_temperature;BMP_pressure;BME280_temperature;BME280_humidity;BME280_pressure;Samples;Min_cycle;Max_cycle;Signal;HPM_P1;HPM_P2
2020/12/26 00:01:07;;;;;;;6.20;6.00;;;;;;;7.38;nan;101783.84;4990135;28;97811;-73
2020/12/26 00:04:12;;;;;;;6.18;5.68;;;;;;;7.39;nan;101787.38;4985184;28;98000;-73
2020/12/26 00:06:40;;;;;;;6.47;5.93;;;;;;;7.36;nan;101782.81;4965795;28;96940;-72
2020/12/26 00:09:09;;;;;;;5.63;5.22;;;;;;;7.36;nan;101782.81;4984533;28;97444;-73
2020/12/26 00:11:36;;;;;;;5.68;5.38;;;;;;;7.36;nan;101784.50;4989219;28;97758;-72
2020/12/26 00:14:04;;;;;;;5.90;5.50;;;;;;;7.40;nan;101784.88;4976289;28;96763;-72
2020/12/26 00:16:31;;;;;;;6.03;5.63;;;;;;;7.41;nan;101781.47;4988449;28;98079;-73
2020/12/26 00:19:02;;;;;;;6.25;5.65;;;;;;;7.43;nan;101785.13;4983966;28;99962;-73
2020/12/26 00:21:30;;;;;;;5.95;5.35;;;;;;;7.49;nan;101777.78;4972417;28;98431;-72
2020/12/26 00:23:57;;;;;;;6.32;5.55;;;;;;;7.50;nan;101782.22;4971845;28;97324;-73
2020/12/26 00:26:25;;;;;;;6.18;5.80;;;;;;;7.50;nan;101776.97;4974332;28;96817;-73
2020/12/26 00:28:53;;;;;;;6.20;5.70;;;;;;;7.55;nan;101775.69;4967521;28;97028;-74
2020/12/26 00:31:20;;;;;;;6.50;5.70;;;;;;;7.52;nan;101772.78;4970207;28;97197;-73
2020/12/26 00:33:48;;;;;;;7.18;6.47;;;;;;;7.51;nan;101778.81;4951438;28;97063;-73
2020/12/26 00:36:15;;;;;;;8.05;6.35;;;;;;;7.51;nan;101777.91;4970714;28;96893;-72
2020/12/26 00:38:43;;;;;;;6.82;6.10;;;;;;;7.51;nan;101778.81;4951836;28;101532;-73
2020/12/26 00:41:12;;;;;;;7.20;6.50;;;;;;;7.50;nan;101782.22;4984820;28;97054;-73
2020/12/26 00:43:39;;;;;;;8.27;7.55;;;;;;;7.47;nan;101770.59;4975909;28;96861;-73
2020/12/26 00:46:07;;;;;;;7.43;6.63;;;;;;;7.48;nan;101769.81;4970401;28;96567;-73
2020/12/26 00:48:35;;;;;;;8.75;7.95;;;;;;;7.49;nan;101766.41;4952188;28;99110;-73
2020/12/26 00:51:03;;;;;;;7.57;6.97;;;;;;;7.45;nan;101780.94;4969023;28;101159;-73
2020/12/26 00:53:33;;;;;;;8.13;7.40;;;;;;;7.42;nan;101775.47;4968460;28;97447;-74
2020/12/26 00:56:01;;;;;;;7.75;7.15;;;;;;;7.41;nan;101776.25;4952866;28;97310;-72
2020/12/26 00:58:29;;;;;;;8.13;7.43;;;;;;;7.38;nan;101776.00;4950552;28;98458;-72
2020/12/26 01:00:56;;;;;;;7.70;7.10;;;;;;;7.38;nan;101773.38;4968465;28;100199;-73
2020/12/26 01:03:46;;;;;;;7.28;6.80;;;;;;;7.32;nan;101769.38;4968662;28;97154;-72
2020/12/26 01:06:14;;;;;;;8.15;7.45;;;;;;;7.31;nan;101773.69;4952534;28;96757;-73
2020/12/26 01:08:42;;;;;;;9.27;7.75;;;;;;;7.31;nan;101768.44;4969416;28;98966;-72
2020/12/26 01:11:11;;;;;;;10.40;7.60;;;;;;;7.33;nan;101771.19;4966415;28;97069;-72
2020/12/26 01:13:38;;;;;;;10.77;7.80;;;;;;;7.30;nan;101777.06;4983907;28;97474;-73
2020/12/26 01:16:06;;;;;;;12.13;8.27;;;;;;;7.28;nan;101773.41;4969177;28;96630;-71
2020/12/26 01:18:34;;;;;;;9.00;7.72;;;;;;;7.26;nan;101768.88;4968721;28;97917;-71
2020/12/26 01:21:04;;;;;;;9.52;8.63;;;;;;;7.23;nan;101772.13;4967473;28;96704;-71
2020/12/26 01:23:33;;;;;;;11.23;8.55;;;;;;;7.19;nan;101765.75;4951803;28;97693;-72
2020/12/26 01:26:00;;;;;;;8.90;8.13;;;;;;;7.15;nan;101774.09;4968993;28;96895;-71
2020/12/26 01:28:48;;;;;;;10.90;8.52;;;;;;;7.15;nan;101774.09;4969194;28;99125;-72
2020/12/26 01:31:17;;;;;;;11.70;8.88;;;;;;;7.11;nan;101772.06;4969493;28;97988;-71
2020/12/26 01:33:45;;;;;;;10.25;8.73;;;;;;;7.11;nan;101772.06;4968695;28;97007;-72
2020/12/26 01:36:13;;;;;;;10.55;8.90;;;;;;;7.09;nan;101776.25;4969215;28;96733;-72
2020/12/26 01:38:40;;;;;;;10.25;8.40;;;;;;;7.06;nan;101772.47;4967148;28;96743;-71
2020/12/26 01:41:08;;;;;;;10.10;9.07;;;;;;;7.04;nan;101779.25;4981862;28;98175;-73
2020/12/26 01:43:36;;;;;;;10.60;9.52;;;;;;;7.10;nan;101774.50;4988485;28;97088;-73
2020/12/26 01:46:04;;;;;;;10.15;9.10;;;;;;;7.10;nan;101780.66;4969622;28;97433;-73
2020/12/26 01:48:51;;;;;;;9.93;8.60;;;;;;;7.10;nan;101774.50;4987441;28;97062;-71
2020/12/26 01:51:19;;;;;;;9.57;8.70;;;;;;;7.08;nan;101774.41;4968555;28;96860;-72
2020/12/26 01:53:48;;;;;;;9.80;8.85;;;;;;;7.07;nan;101776.88;4968229;28;96601;-73
2020/12/26 01:56:16;;;;;;;12.75;9.70;;;;;;;7.06;nan;101770.75;4986436;22;97811;-72
2020/12/26 01:58:44;;;;;;;11.87;9.40;;;;;;;7.00;nan;101780.69;4995214;28;98066;-71
2020/12/26 02:01:13;;;;;;;11.68;9.52;;;;;;;6.97;nan;101769.97;4967506;28;97944;-72
2020/12/26 02:03:40;;;;;;;12.52;9.93;;;;;;;6.94;nan;101768.81;4969377;28;97157;-71
2020/12/26 02:06:08;;;;;;;14.25;10.32;;;;;;;6.95;nan;101782.00;4969103;28;97407;-72
2020/12/26 02:08:36;;;;;;;14.70;10.52;;;;;;;6.93;nan;101778.34;4966561;28;97855;-72
2020/12/26 02:11:05;;;;;;;11.05;9.95;;;;;;;6.92;nan;101783.44;4995415;28;97037;-72
2020/12/26 02:13:32;;;;;;;12.73;10.00;;;;;;;6.92;nan;101778.22;5007153;28;97080;-71
2020/12/26 02:16:07;;;;;;;13.98;11.25;;;;;;;6.91;nan;101779.03;5004767;28;96753;-71
2020/12/26 02:18:36;;;;;;;13.35;10.93;;;;;;;6.86;nan;101780.34;4976499;28;97224;-72
2020/12/26 02:21:03;;;;;;;11.43;10.25;;;;;;;6.85;nan;101781.09;4987708;28;98073;-72
2020/12/26 02:23:33;;;;;;;14.20;10.65;;;;;;;6.80;nan;101779.81;4987429;28;96698;-72
2020/12/26 02:26:01;;;;;;;14.40;11.35;;;;;;;6.79;nan;101789.34;4987545;28;96772;-71
2020/12/26 02:28:29;;;;;;;14.02;11.45;;;;;;;6.77;nan;101800.47;4961737;28;101168;-71
2020/12/26 02:30:56;;;;;;;12.20;10.07;;;;;;;6.73;nan;101796.66;4990667;28;98252;-72
2020/12/26 02:33:24;;;;;;;12.65;10.48;;;;;;;6.69;nan;101801.50;4989871;28;97145;-71
2020/12/26 02:35:51;;;;;;;17.40;11.00;;;;;;;6.69;nan;101785.84;4978198;28;97082;-72
2020/12/26 02:38:19;;;;;;;13.02;11.43;;;;;;;6.68;nan;101789.25;4979860;28;98943;-70
2020/12/26 02:40:47;;;;;;;13.57;11.00;;;;;;;6.67;nan;101784.78;4990677;28;98485;-71
2020/12/26 02:43:19;;;;;;;15.07;10.60;;;;;;;6.73;nan;101780.09;4990492;28;96804;-71
2020/12/26 02:45:47;;;;;;;13.60;11.47;;;;;;;6.73;nan;101780.97;4984324;28;97450;-71
2020/12/26 02:48:15;;;;;;;14.35;10.73;;;;;;;6.76;nan;101796.00;4982421;28;98125;-71
2020/12/26 02:50:54;;;;;;;12.43;11.07;;;;;;;6.79;nan;101793.63;4991847;28;99241;-71
2020/12/26 02:53:21;;;;;;;13.02;10.02;;;;;;;6.79;nan;101797.19;4991256;28;97000;-71
2020/12/26 02:55:49;;;;;;;15.32;10.32;;;;;;;6.82;nan;101800.06;4974482;28;96750;-72
2020/12/26 02:58:17;;;;;;;10.68;9.45;;;;;;;6.86;nan;101801.22;4969928;28;97071;-71
2020/12/26 03:00:45;;;;;;;12.20;11.00;;;;;;;6.90;nan;101811.13;4953321;28;99146;-71
2020/12/26 03:03:15;;;;;;;12.02;10.07;;;;;;;6.91;nan;101816.50;4980176;28;96708;-71
2020/12/26 03:05:43;;;;;;;12.00;9.87;;;;;;;6.93;nan;101821.84;4981861;28;96874;-71
2020/12/26 03:08:11;;;;;;;14.38;9.90;;;;;;;6.92;nan;101817.41;4990188;28;98244;-72
2020/12/26 03:10:38;;;;;;;13.98;10.07;;;;;;;6.89;nan;101817.16;4998561;28;102168;-71
2020/12/26 03:13:06;;;;;;;14.10;9.63;;;;;;;6.87;nan;101816.09;5002431;28;96771;-71
2020/12/26 03:15:34;;;;;;;11.88;10.00;;;;;;;6.84;nan;101808.03;5011262;28;96767;-72
2020/12/26 03:18:02;;;;;;;13.88;10.50;;;;;;;6.91;nan;101812.97;4989209;28;97872;-72
2020/12/26 03:20:30;;;;;;;13.48;9.27;;;;;;;6.89;nan;101811.94;4970490;28;96920;-71
2020/12/26 03:22:57;;;;;;;12.15;9.07;;;;;;;6.96;nan;101819.47;4969337;28;96701;-72
2020/12/26 03:25:25;;;;;;;10.05;9.05;;;;;;;6.96;nan;101803.81;4969412;28;96977;-71
2020/12/26 03:27:52;;;;;;;12.55;9.00;;;;;;;6.95;nan;101802.00;4970047;28;96986;-71
2020/12/26 03:30:20;;;;;;;12.05;9.15;;;;;;;7.00;nan;101805.91;4970174;28;99300;-71
2020/12/26 03:32:48;;;;;;;11.60;8.90;;;;;;;7.00;nan;101800.69;4977853;28;96818;-72
2020/12/26 03:35:16;;;;;;;13.45;8.60;;;;;;;7.06;nan;101798.59;4991166;28;97232;-71
2020/12/26 03:37:43;;;;;;;10.27;9.05;;;;;;;7.09;nan;101788.38;4988627;28;97111;-71
2020/12/26 03:40:28;;;;;;;10.18;9.27;;;;;;;7.11;nan;101797.25;4975095;28;97839;-72
2020/12/26 03:42:56;;;;;;;12.40;9.57;;;;;;;7.13;nan;101793.97;5003892;28;97061;-71
2020/12/26 03:45:23;;;;;;;12.07;9.10;;;;;;;7.17;nan;101795.16;4992501;28;98703;-72
2020/12/26 03:47:52;;;;;;;12.48;8.80;;;;;;;7.16;nan;101794.25;4989668;28;98032;-72
2020/12/26 03:50:19;;;;;;;9.77;8.85;;;;;;;7.23;nan;101795.66;4970946;28;97960;-71
2020/12/26 03:53:05;;;;;;;12.48;8.10;;;;;;;7.25;nan;101796.69;4956368;28;96788;-71
2020/12/26 03:55:33;;;;;;;11.85;9.27;;;;;;;7.27;nan;101800.34;4969092;28;97702;-71
2020/12/26 03:58:01;;;;;;;11.55;9.02;;;;;;;7.31;nan;101796.28;4969390;28;98436;-72
2020/12/26 04:00:29;;;;;;;11.73;8.65;;;;;;;7.34;nan;101786.06;4970218;28;97952;-72
2020/12/26 04:03:16;;;;;;;14.00;8.98;;;;;;;7.36;nan;101779.25;4969299;28;96714;-70
2020/12/26 04:06:02;;;;;;;12.45;9.25;;;;;;;7.36;nan;101777.56;4970443;28;96732;-70
2020/12/26 04:08:29;;;;;;;11.35;8.50;;;;;;;7.38;nan;101768.16;4969816;28;97905;-71
2020/12/26 04:10:57;;;;;;;13.77;8.88;;;;;;;7.42;nan;101769.31;4978434;28;98792;-72
2020/12/26 04:13:24;;;;;;;13.25;9.18;;;;;;;7.48;nan;101775.94;4967569;28;97156;-71
2020/12/26 04:15:52;;;;;;;17.00;9.38;;;;;;;7.50;nan;101776.09;4969697;28;97284;-71
2020/12/26 04:18:20;;;;;;;10.98;8.65;;;;;;;7.50;nan;101779.59;4969708;28;99635;-71
2020/12/26 04:20:47;;;;;;;13.07;8.50;;;;;;;7.48;nan;101780.28;4969743;28;96722;-70
2020/12/26 04:23:14;;;;;;;12.77;8.88;;;;;;;7.49;nan;101780.41;4970029;28;96707;-71
2020/12/26 04:26:00;;;;;;;9.80;8.50;;;;;;;7.52;nan;101783.25;4969930;28;96803;-71
2020/12/26 04:28:46;;;;;;;11.95;9.38;;;;;;;7.54;nan;101784.28;4951642;28;98036;-70
2020/12/26 04:31:14;;;;;;;12.75;9.48;;;;;;;7.58;nan;101788.97;4970380;28;101025;-71
2020/12/26 04:33:42;;;;;;;11.07;9.20;;;;;;;7.61;nan;101781.38;4969820;28;97930;-71
2020/12/26 04:36:09;;;;;;;10.27;8.88;;;;;;;7.62;nan;101778.00;4968192;28;96805;-71
2020/12/26 04:38:36;;;;;;;14.57;8.45;;;;;;;7.65;nan;101772.06;4968329;28;97989;-72
2020/12/26 04:41:04;;;;;;;13.80;9.50;;;;;;;7.69;nan;101753.22;4996643;28;97921;-72
2020/12/26 04:43:32;;;;;;;11.00;8.65;;;;;;;7.73;nan;101751.00;5008264;28;97161;-71
2020/12/26 04:46:05;;;;;;;12.55;8.70;;;;;;;7.78;nan;101748.72;4958568;28;96659;-72
2020/12/26 04:48:34;;;;;;;11.30;9.23;;;;;;;7.83;nan;101745.69;4953064;28;97783;-72
2020/12/26 04:51:04;;;;;;;14.15;9.15;;;;;;;7.83;nan;101740.47;4987604;28;98339;-72
2020/12/26 04:53:33;;;;;;;10.75;9.32;;;;;;;7.87;nan;101739.91;4988411;28;97140;-72
2020/12/26 04:56:02;;;;;;;15.68;9.23;;;;;;;7.90;nan;101734.03;4965745;28;96932;-72
2020/12/26 04:58:30;;;;;;;11.07;9.95;;;;;;;7.93;nan;101743.03;4978782;28;98205;-73
2020/12/26 05:01:00;;;;;;;10.98;9.85;;;;;;;7.96;nan;101744.94;4954134;28;98672;-72
2020/12/26 05:03:47;;;;;;;14.50;9.23;;;;;;;7.97;nan;101742.44;4982351;28;96787;-71
2020/12/26 05:06:16;;;;;;;10.90;8.60;;;;;;;8.01;nan;101741.00;4980191;28;97207;-72
2020/12/26 05:08:45;;;;;;;12.65;9.65;;;;;;;7.97;nan;101750.28;4979046;28;98108;-72
2020/12/26 05:11:12;;;;;;;14.48;8.98;;;;;;;7.95;nan;101748.38;4969658;28;99980;-72
2020/12/26 05:13:42;;;;;;;12.38;9.77;;;;;;;7.92;nan;101751.66;4987970;28;96898;-71
2020/12/26 05:16:10;;;;;;;13.13;9.07;;;;;;;7.92;nan;101737.66;4969543;28;97336;-73
2020/12/26 05:18:38;;;;;;;10.52;8.32;;;;;;;7.87;nan;101745.16;4979796;28;99199;-71
2020/12/26 05:21:06;;;;;;;16.27;9.65;;;;;;;7.83;nan;101737.84;4970742;28;98961;-73
2020/12/26 05:23:35;;;;;;;10.52;9.15;;;;;;;7.79;nan;101730.53;4970999;28;96990;-72
2020/12/26 05:26:03;;;;;;;12.73;9.48;;;;;;;7.77;nan;101724.28;4985878;28;96799;-73
2020/12/26 05:28:33;;;;;;;12.88;9.57;;;;;;;7.76;nan;101729.38;4949857;28;97889;-72
2020/12/26 05:31:07;;;;;;;13.13;9.68;;;;;;;7.76;nan;101742.47;4968663;28;97306;-72
2020/12/26 05:33:35;;;;;;;12.35;9.45;;;;;;;7.74;nan;101731.88;4967687;28;97216;-72
2020/12/26 05:36:04;;;;;;;11.93;9.63;;;;;;;7.80;nan;101721.91;4968092;28;97255;-72
2020/12/26 05:38:32;;;;;;;12.70;8.63;;;;;;;7.81;nan;101728.97;4968607;28;98823;-71
2020/12/26 05:41:01;;;;;;;14.07;9.43;;;;;;;7.86;nan;101727.66;4995402;28;99266;-71
2020/12/26 05:43:31;;;;;;;11.13;9.68;;;;;;;7.90;nan;101724.44;4991419;28;97069;-71
2020/12/26 05:45:59;;;;;;;10.43;9.07;;;;;;;7.90;nan;101727.06;4969193;28;96768;-72
2020/12/26 05:48:28;;;;;;;12.05;9.35;;;;;;;7.91;nan;101726.28;4966830;28;99086;-72
2020/12/26 05:50:58;;;;;;;12.52;9.70;;;;;;;7.88;nan;101730.38;4950649;28;97840;-71
2020/12/26 05:53:26;;;;;;;9.45;8.50;;;;;;;7.86;nan;101731.94;4950739;28;97301;-71
2020/12/26 05:55:54;;;;;;;11.73;9.40;;;;;;;7.84;nan;101729.22;4968571;28;98285;-72
2020/12/26 05:58:24;;;;;;;14.10;9.63;;;;;;;7.80;nan;101721.91;4968144;28;99619;-72
2020/12/26 06:00:52;;;;;;;15.02;9.93;;;;;;;7.77;nan;101726.88;4967907;28;98164;-71
2020/12/26 06:03:24;;;;;;;11.25;8.77;;;;;;;7.76;nan;101719.84;4968461;28;97055;-72
2020/12/26 06:05:54;;;;;;;9.75;8.52;;;;;;;7.74;nan;101712.66;4969183;28;97166;-72
2020/12/26 06:08:22;;;;;;;14.68;8.98;;;;;;;7.72;nan;101717.78;4966891;28;97378;-72
2020/12/26 06:10:52;;;;;;;12.85;9.23;;;;;;;7.74;nan;101715.28;4988989;28;97913;-72
2020/12/26 06:13:23;;;;;;;11.20;8.73;;;;;;;7.78;nan;101717.34;4987022;28;97829;-72
2020/12/26 06:16:11;;;;;;;8.90;7.90;;;;;;;7.81;nan;101723.72;5008257;28;97261;-72
2020/12/26 06:18:59;;;;;;;12.57;7.95;;;;;;;7.85;nan;101720.56;4986857;28;98025;-72
2020/12/26 06:21:27;;;;;;;10.43;8.32;;;;;;;7.88;nan;101715.56;4950265;28;97169;-72
2020/12/26 06:23:55;;;;;;;13.27;8.52;;;;;;;7.91;nan;101710.59;4968595;28;96782;-72
2020/12/26 06:26:29;;;;;;;12.25;9.80;;;;;;;7.98;nan;101707.66;4968994;28;96961;-73
2020/12/26 06:28:58;;;;;;;9.60;8.57;;;;;;;8.02;nan;101714.97;4950215;28;99335;-72
2020/12/26 06:31:25;;;;;;;10.70;9.20;;;;;;;8.01;nan;101713.13;4967905;28;97991;-73
2020/12/26 06:33:53;;;;;;;10.35;8.50;;;;;;;8.00;nan;101710.38;4968631;28;97146;-73
2020/12/26 06:36:20;;;;;;;12.65;8.73;;;;;;;8.02;nan;101717.59;4968408;28;97018;-73
2020/12/26 06:38:48;;;;;;;10.25;8.88;;;;;;;8.01;nan;101718.34;4967969;28;96937;-73
2020/12/26 06:41:16;;;;;;;15.13;8.77;;;;;;;8.03;nan;101711.53;4994671;28;96909;-72
2020/12/26 06:43:45;;;;;;;10.23;9.18;;;;;;;8.06;nan;101719.63;4966187;28;98382;-73
2020/12/26 06:46:42;;;;;;;12.02;9.48;;;;;;;8.04;nan;101713.38;4950338;28;97415;-72
2020/12/26 06:49:26;;;;;;;13.13;9.00;;;;;;;7.96;nan;101713.56;4968823;28;99036;-72
2020/12/26 06:51:55;;;;;;;14.88;8.82;;;;;;;7.95;nan;101723.13;4966717;28;97006;-73
2020/12/26 06:54:40;;;;;;;9.98;8.95;;;;;;;7.91;nan;101717.53;4966702;28;96804;-72
2020/12/26 06:57:08;;;;;;;11.93;8.90;;;;;;;7.94;nan;101720.38;4967270;28;97119;-72
2020/12/26 06:59:36;;;;;;;13.00;9.38;;;;;;;7.98;nan;101717.22;4962522;28;98260;-73
2020/12/26 07:02:08;;;;;;;10.18;8.90;;;;;;;7.94;nan;101721.28;4967206;28;97144;-72
2020/12/26 07:04:40;;;;;;;11.35;8.90;;;;;;;7.97;nan;101728.47;4968041;28;96682;-72
2020/12/26 07:07:09;;;;;;;11.70;8.30;;;;;;;8.00;nan;101719.16;4960856;28;98015;-73
2020/12/26 07:09:55;;;;;;;8.60;7.70;;;;;;;7.98;nan;101718.13;4977803;28;98216;-73
2020/12/26 07:12:41;;;;;;;9.70;8.73;;;;;;;8.01;nan;101722.69;4976543;28;99310;-72
2020/12/26 07:15:08;;;;;;;9.98;8.75;;;;;;;8.03;nan;101722.00;4984888;28;97826;-72
2020/12/26 07:17:36;;;;;;;10.60;8.32;;;;;;;8.05;nan;101709.03;4988503;28;97108;-73
2020/12/26 07:20:04;;;;;;;10.57;8.13;;;;;;;8.10;nan;101716.44;4983375;28;97954;-74
2020/12/26 07:22:33;;;;;;;12.77;8.90;;;;;;;8.16;nan;101713.41;4980594;28;97519;-74
2020/12/26 07:25:02;;;;;;;8.75;7.80;;;;;;;8.20;nan;101718.09;4972190;28;96994;-73
2020/12/26 07:27:30;;;;;;;10.80;8.82;;;;;;;8.23;nan;101723.53;4986895;28;98015;-73
2020/12/26 07:30:00;;;;;;;9.80;7.85;;;;;;;8.24;nan;101725.41;4989812;28;97759;-74
2020/12/26 07:32:43;;;;;;;7.85;7.13;;;;;;;8.26;nan;101722.91;4988741;28;98167;-74
2020/12/26 07:35:41;;;;;;;8.63;6.85;;;;;;;8.24;nan;101730.66;4969043;28;97402;-73
2020/12/26 07:38:14;;;;;;;10.88;7.45;;;;;;;8.27;nan;101735.19;4949919;28;96702;-74
2020/12/26 07:40:43;;;;;;;7.50;6.75;;;;;;;8.27;nan;101728.25;4972437;28;97807;-74
2020/12/26 07:43:13;;;;;;;8.23;6.72;;;;;;;8.28;nan;101744.88;4970911;28;99569;-75
2020/12/26 07:45:43;;;;;;;9.27;6.32;;;;;;;8.33;nan;101748.75;4970120;28;97065;-75
2020/12/26 07:48:12;;;;;;;8.20;7.32;;;;;;;8.37;nan;101761.31;4953905;28;97592;-74
2020/12/26 07:50:40;;;;;;;8.10;6.70;;;;;;;8.41;nan;101747.66;4971535;28;97944;-75
2020/12/26 07:53:13;;;;;;;6.68;6.22;;;;;;;8.43;nan;101748.69;4989302;28;97942;-75
2020/12/26 07:55:41;;;;;;;8.70;6.60;;;;;;;8.49;nan;101738.66;4967404;28;98468;-74
2020/12/26 07:58:10;;;;;;;10.93;7.55;;;;;;;8.51;nan;101734.47;5004076;22;98902;-73
2020/12/26 08:00:38;;;;;;;7.75;6.78;;;;;;;8.55;nan;101736.53;5004423;28;99085;-73
2020/12/26 08:03:07;;;;;;;7.35;6.55;;;;;;;8.58;nan;101744.59;5004269;28;97945;-74
2020/12/26 08:05:37;;;;;;;7.68;6.78;;;;;;;8.59;nan;101734.28;4988570;28;97276;-74
2020/12/26 08:08:13;;;;;;;7.22;6.57;;;;;;;8.60;nan;101735.16;4994406;28;97342;-73
2020/12/26 08:10:41;;;;;;;6.85;6.15;;;;;;;8.58;nan;101739.38;5018733;28;99034;-74
2020/12/26 08:13:13;;;;;;;7.25;6.22;;;;;;;8.59;nan;101735.97;5024477;28;97743;-73
2020/12/26 08:15:41;;;;;;;6.63;5.60;;;;;;;8.56;nan;101735.75;5030150;28;96788;-73
2020/12/26 08:18:09;;;;;;;7.47;5.63;;;;;;;8.56;nan;101738.38;5011600;28;97149;-72
2020/12/26 08:20:38;;;;;;;6.50;5.88;;;;;;;8.58;nan;101732.44;5023366;28;97976;-74
2020/12/26 08:23:12;;;;;;;6.38;5.53;;;;;;;8.60;nan;101733.47;5017516;27;97966;-73
2020/12/26 08:25:39;;;;;;;6.47;5.88;;;;;;;8.61;nan;101740.50;5005627;28;97442;-73
2020/12/26 08:28:09;;;;;;;7.35;5.68;;;;;;;8.65;nan;101739.94;4990723;28;99103;-72
2020/12/26 08:30:38;;;;;;;6.82;6.30;;;;;;;8.69;nan;101741.09;5022412;28;98047;-74
2020/12/26 08:33:20;;;;;;;7.20;6.60;;;;;;;8.70;nan;101738.63;5007055;28;96851;-73
2020/12/26 08:35:54;;;;;;;7.55;5.80;;;;;;;8.76;nan;101738.13;5020572;28;97068;-74
2020/12/26 08:38:26;;;;;;;7.15;6.30;;;;;;;8.78;nan;101733.94;5017738;28;97422;-73
2020/12/26 08:40:56;;;;;;;8.68;7.03;;;;;;;8.82;nan;101734.28;5019354;28;98036;-74
2020/12/26 08:43:24;;;;;;;8.63;6.97;;;;;;;8.84;nan;101729.16;5021246;28;96733;-73
2020/12/26 08:45:52;;;;;;;9.05;6.68;;;;;;;8.89;nan;101741.81;5021392;28;97881;-72
2020/12/26 08:48:21;;;;;;;10.15;7.15;;;;;;;8.88;nan;101739.06;4996165;28;98057;-74
2020/12/26 08:50:56;;;;;;;8.40;6.93;;;;;;;8.92;nan;101736.78;5028065;28;97593;-73
2020/12/26 08:53:28;;;;;;;7.45;6.47;;;;;;;8.90;nan;101737.50;5025049;28;97797;-73
2020/12/26 08:55:56;;;;;;;7.63;6.57;;;;;;;8.93;nan;101740.31;5016642;28;97383;-73
2020/12/26 08:58:26;;;;;;;7.57;6.72;;;;;;;8.93;nan;101737.69;5017687;28;97827;-75
2020/12/26 09:00:57;;;;;;;7.45;6.80;;;;;;;8.93;nan;101743.88;5021648;28;99296;-73
2020/12/26 09:03:26;;;;;;;8.60;7.35;;;;;;;8.93;nan;101740.31;5019746;28;98916;-72
2020/12/26 09:05:56;;;;;;;7.97;7.18;;;;;;;8.94;nan;101742.16;5014009;28;97072;-73
2020/12/26 09:08:27;;;;;;;9.88;7.07;;;;;;;8.97;nan;101745.00;4997284;27;97710;-73
2020/12/26 09:10:57;;;;;;;7.85;7.15;;;;;;;8.96;nan;101746.69;5018523;28;99129;-73
2020/12/26 09:13:32;;;;;;;8.68;7.28;;;;;;;8.98;nan;101747.72;5019034;27;98898;-73
2020/12/26 09:16:03;;;;;;;7.40;6.70;;;;;;;9.02;nan;101748.88;5021745;28;97289;-73
2020/12/26 09:18:36;;;;;;;9.23;6.95;;;;;;;9.06;nan;101749.22;5015472;28;97102;-73
2020/12/26 09:21:05;;;;;;;11.73;7.43;;;;;;;9.08;nan;101744.09;5014897;28;98881;-74
2020/12/26 09:23:35;;;;;;;9.07;8.18;;;;;;;9.13;nan;101742.72;5007638;27;97513;-72
2020/12/26 09:26:22;;;;;;;8.75;7.55;;;;;;;9.12;nan;101738.28;5010077;27;98501;-75
2020/12/26 09:28:52;;;;;;;12.77;8.10;;;;;;;9.12;nan;101738.28;5018645;28;97941;-74
2020/12/26 09:31:23;;;;;;;9.80;8.13;;;;;;;9.15;nan;101739.44;5018009;28;97926;-74
2020/12/26 09:33:52;;;;;;;10.00;8.35;;;;;;;9.20;nan;101739.75;5017105;28;98126;-74
2020/12/26 09:36:22;;;;;;;11.40;7.82;;;;;;;9.24;nan;101744.41;5013341;28;97986;-74
2020/12/26 09:38:51;;;;;;;9.15;8.02;;;;;;;9.38;nan;101737.59;5015898;27;97295;-74
2020/12/26 09:41:20;;;;;;;11.85;7.53;;;;;;;9.45;nan;101737.22;5017470;28;96837;-74
2020/12/26 09:43:49;;;;;;;9.45;8.52;;;;;;;9.46;nan;101736.41;5024244;28;101705;-75
2020/12/26 09:46:16;;;;;;;9.10;8.05;;;;;;;9.47;nan;101739.13;5015842;28;97374;-75
2020/12/26 09:48:45;;;;;;;11.70;8.50;;;;;;;9.49;nan;101734.91;5014565;28;97479;-76
2020/12/26 09:51:14;;;;;;;10.63;8.52;;;;;;;9.46;nan;101733.78;5014218;28;98744;-74
2020/12/26 09:54:03;;;;;;;12.90;8.73;;;;;;;9.47;nan;101744.38;5020745;28;102636;-73
2020/12/26 09:56:48;;;;;;;13.98;8.60;;;;;;;9.47;nan;101739.13;5014405;28;96740;-75
2020/12/26 09:59:16;;;;;;;12.57;8.32;;;;;;;9.50;nan;101727.97;4996824;28;98035;-76
2020/12/26 10:01:47;;;;;;;8.70;7.80;;;;;;;9.52;nan;101724.66;5016234;28;97856;-73
2020/12/26 10:04:33;;;;;;;10.57;8.02;;;;;;;9.54;nan;101730.94;5016295;28;97924;-73
2020/12/26 10:07:01;;;;;;;10.35;8.18;;;;;;;9.59;nan;101726.00;5018121;28;97514;-73
2020/12/26 10:09:30;;;;;;;12.75;8.48;;;;;;;9.60;nan;101726.09;5001028;28;97168;-73
2020/12/26 10:11:57;;;;;;;8.57;7.78;;;;;;;9.63;nan;101730.69;5022341;28;98005;-74
2020/12/26 10:14:24;;;;;;;8.68;7.88;;;;;;;9.64;nan;101725.53;5025719;28;97700;-75
2020/12/26 10:16:52;;;;;;;8.68;7.50;;;;;;;9.67;nan;101733.63;5023765;28;97115;-73
2020/12/26 10:19:19;;;;;;;11.50;8.43;;;;;;;9.69;nan;101729.38;5001451;28;96907;-72
2020/12/26 10:21:51;;;;;;;11.18;8.55;;;;;;;9.68;nan;101742.41;5017717;27;99001;-75
2020/12/26 10:24:19;;;;;;;9.13;7.85;;;;;;;9.66;nan;101731.81;5014932;27;97991;-74
2020/12/26 10:26:47;;;;;;;11.32;8.15;;;;;;;9.70;nan;101738.19;5015652;27;98003;-76
2020/12/26 10:29:14;;;;;;;11.23;8.48;;;;;;;9.72;nan;101732.25;4991940;28;97195;-75
2020/12/26 10:31:42;;;;;;;10.93;8.23;;;;;;;9.73;nan;101723.56;5014112;28;99170;-76
2020/12/26 10:34:10;;;;;;;10.10;8.13;;;;;;;9.76;nan;101725.50;5014702;28;98704;-77
2020/12/26 10:36:41;;;;;;;14.00;9.05;;;;;;;9.80;nan;101715.31;5016461;28;97043;-76
2020/12/26 10:39:09;;;;;;;11.02;8.80;;;;;;;9.84;nan;101725.25;5020080;27;96840;-75
2020/12/26 10:41:39;;;;;;;12.68;10.38;;;;;;;9.84;nan;101726.94;5015824;28;97972;-78
2020/12/26 10:44:07;;;;;;;10.23;8.18;;;;;;;9.76;nan;101715.03;5011697;27;99253;-74
2020/12/26 10:46:34;;;;;;;8.45;7.55;;;;;;;9.78;nan;101716.03;5014387;28;97956;-77
2020/12/26 10:49:02;;;;;;;11.75;8.25;;;;;;;9.81;nan;101713.63;5014875;27;96805;-76
2020/12/26 10:51:29;;;;;;;8.75;7.85;;;;;;;9.86;nan;101721.03;5021737;28;99151;-77
2020/12/26 10:53:57;;;;;;;9.45;8.27;;;;;;;9.87;nan;101714.94;5021671;28;99428;-74
2020/12/26 10:56:25;;;;;;;10.07;8.40;;;;;;;9.93;nan;101703.97;5022206;28;97095;-74
2020/12/26 10:58:52;;;;;;;9.35;8.18;;;;;;;10.02;nan;101699.38;5016950;28;97367;-74
2020/12/26 11:01:29;;;;;;;11.40;8.95;;;;;;;10.05;nan;101683.84;5017494;28;98995;-74
2020/12/26 11:03:57;;;;;;;13.15;9.38;;;;;;;10.09;nan;101685.94;5019390;28;101022;-78
2020/12/26 11:06:48;;;;;;;9.10;8.25;;;;;;;10.14;nan;101680.16;5016533;28;97232;-77
2020/12/26 11:09:15;;;;;;;9.25;8.10;;;;;;;10.16;nan;101677.66;5015203;28;98239;-77
2020/12/26 11:11:47;;;;;;;15.30;8.80;;;;;;;10.19;nan;101675.25;5019032;28;98427;-77
2020/12/26 11:14:15;;;;;;;11.75;7.72;;;;;;;10.23;nan;101664.16;4986141;28;100262;-73
2020/12/26 11:16:47;;;;;;;11.05;8.60;;;;;;;10.28;nan;101651.31;5015999;28;96913;-76
2020/12/26 11:19:16;;;;;;;15.75;9.10;;;;;;;10.30;nan;101652.34;4998948;28;97668;-75
2020/12/26 11:21:44;;;;;;;12.02;9.05;;;;;;;10.34;nan;101649.13;5017631;28;99152;-75
2020/12/26 11:24:12;;;;;;;12.85;8.48;;;;;;;10.43;nan;101642.78;5015598;28;99141;-74
2020/12/26 11:26:39;;;;;;;9.27;8.32;;;;;;;10.45;nan;101648.13;4988547;28;98680;-74
2020/12/26 11:29:07;;;;;;;11.07;8.25;;;;;;;10.50;nan;101634.50;5013920;28;98303;-74
2020/12/26 11:31:34;;;;;;;9.15;8.07;;;;;;;10.58;nan;101638.56;5017061;28;98661;-74
2020/12/26 11:34:04;;;;;;;10.13;8.10;;;;;;;10.63;nan;101636.22;5016711;28;97833;-76
2020/12/26 11:36:31;;;;;;;10.38;8.55;;;;;;;10.65;nan;101629.34;5014564;28;96995;-74
2020/12/26 11:38:59;;;;;;;10.05;8.30;;;;;;;10.65;nan;101627.63;5016325;28;97529;-74
2020/12/26 11:41:28;;;;;;;10.00;7.95;;;;;;;10.72;nan;101631.56;5012612;28;98641;-74
2020/12/26 11:43:57;;;;;;;10.07;8.25;;;;;;;10.78;nan;101631.97;5000249;28;100004;-73
2020/12/26 11:46:43;;;;;;;9.65;8.68;;;;;;;10.80;nan;101619.84;5015208;28;97279;-74
2020/12/26 11:49:11;;;;;;;10.48;8.68;;;;;;;10.82;nan;101612.97;5017183;28;97823;-75
2020/12/26 11:51:38;;;;;;;9.70;8.25;;;;;;;10.86;nan;101607.09;5017640;28;100791;-74
2020/12/26 11:54:06;;;;;;;11.73;8.10;;;;;;;10.90;nan;101612.66;4990873;28;99240;-74
2020/12/26 11:56:48;;;;;;;9.05;8.07;;;;;;;10.93;nan;101609.34;5014360;28;97729;-75
2020/12/26 11:59:16;;;;;;;9.48;8.13;;;;;;;10.94;nan;101609.44;4999320;28;97585;-76